Time;durP1;ratioP1;P1;durP2;ratioP2;P2;SDS_P1;SDS_P2;PMS_P1;PMS_P2;Temp;Humidity;BMP_temperature;BMP_pressure;BME280_temperature;BME280_humidity;BME280_pressure;Samples;Min_cycle;Max_cycle;Signal;HPM_P1;HPM_P2
2023/07/19 14:56:44;;;;;;;;;4.33;4.00;;;;;27.90;42.05;97666.84;4828028;28;103549;-80
2023/07/19 14:59:11;;;;;;;;;3.00;3.00;;;;;27.94;37.36;97656.69;4983354;28;108791;-80
2023/07/19 15:01:39;;;;;;;;;3.00;3.00;;;;;28.09;39.57;97647.75;4990156;28;102444;-80
2023/07/19 15:04:08;;;;;;;;;3.00;3.00;;;;;28.40;42.34;97650.16;4984056;28;102009;-80
2023/07/19 15:06:35;;;;;;;;;2.33;2.00;;;;;28.47;40.40;97652.38;4984069;28;102445;-80
2023/07/19 15:09:03;;;;;;;;;2.67;2.67;;;;;28.43;42.24;97618.06;4992300;28;103049;-80
2023/07/19 15:11:30;;;;;;;;;5.67;5.67;;;;;28.57;37.61;97640.84;4990663;28;103570;-81
2023/07/19 15:13:57;;;;;;;;;3.00;3.00;;;;;28.67;38.03;97643.19;4992446;28;102027;-81
2023/07/19 15:16:24;;;;;;;;;6.67;5.00;;;;;28.43;36.52;97640.31;4991009;28;102386;-78
2023/07/19 15:18:52;;;;;;;;;3.67;3.67;;;;;28.48;38.98;97642.88;4992556;28;103814;-80
2023/07/19 15:21:19;;;;;;;;;5.33;4.67;;;;;28.63;40.47;97640.28;4988785;28;102426;-80
2023/07/19 15:23:52;;;;;;;;;3.00;3.00;;;;;28.75;39.43;97631.19;4985576;28;101823;-80
2023/07/19 15:26:34;;;;;;;;;4.00;4.00;;;;;28.74;38.19;97644.28;4988888;28;102304;-80
2023/07/19 15:29:25;;;;;;;;;6.00;5.00;;;;;28.11;36.55;97642.69;4983965;28;108204;-77
2023/07/19 15:32:09;;;;;;;;;5.00;5.00;;;;;27.86;37.04;97630.59;4991875;28;102139;-79
2023/07/19 15:34:55;;;;;;;;;4.33;3.33;;;;;28.12;38.91;97646.28;4979145;28;102134;-81
2023/07/19 15:37:37;;;;;;;;;4.00;4.00;;;;;28.11;35.87;97639.91;4970207;28;102949;-79
2023/07/19 15:40:14;;;;;;;;;6.00;6.00;;;;;28.09;36.72;97638.59;4983307;28;107531;-80
2023/07/19 15:42:41;;;;;;;;;5.00;5.00;;;;;28.15;36.49;97651.97;4989182;28;102131;-81
2023/07/19 15:45:09;;;;;;;;;4.67;3.00;;;;;28.33;36.20;97649.88;4991051;28;101936;-80
2023/07/19 15:47:36;;;;;;;;;4.33;3.33;;;;;28.37;35.57;97648.84;4990604;28;102454;-80
2023/07/19 15:50:04;;;;;;;;;4.33;4.33;;;;;27.86;34.66;97643.66;4989689;28;104039;-77
2023/07/19 15:52:31;;;;;;;;;5.00;5.00;;;;;27.79;37.61;97640.56;4983283;28;102257;-80
2023/07/19 15:54:58;;;;;;;;;3.00;3.00;;;;;27.70;37.21;97639.81;4986373;28;103199;-80
2023/07/19 15:57:25;;;;;;;;;5.67;4.00;;;;;27.45;36.33;97647.13;4993788;28;104174;-79
2023/07/19 15:59:52;;;;;;;;;6.00;5.00;;;;;27.16;36.90;97647.88;5007103;28;104419;-78
2023/07/19 16:02:19;;;;;;;;;5.00;4.00;;;;;27.19;35.66;97646.41;5008094;28;102922;-79
2023/07/19 16:04:46;;;;;;;;;5.00;5.00;;;;;27.37;38.15;97639.66;5009728;28;102278;-79
2023/07/19 16:07:13;;;;;;;;;4.33;4.33;;;;;27.58;37.54;97636.97;5017724;27;102785;-80
2023/07/19 16:09:41;;;;;;;;;3.00;2.33;;;;;27.76;38.37;97644.84;5011502;28;108857;-80
2023/07/19 16:12:08;;;;;;;;;3.33;2.67;;;;;27.77;36.47;97645.69;5013968;28;102020;-80
2023/07/19 16:14:35;;;;;;;;;2.00;2.00;;;;;27.72;35.82;97641.13;5010341;28;102046;-80
2023/07/19 16:17:02;;;;;;;;;5.00;3.00;;;;;27.74;34.18;97624.91;5014438;28;102249;-81
2023/07/19 16:19:29;;;;;;;;;1.00;1.00;;;;;28.03;36.80;97648.28;4994525;28;104185;-80
2023/07/19 16:21:56;;;;;;;;;1.50;1.00;;;;;27.99;35.56;97652.88;5013800;28;102414;-80
2023/07/19 16:24:24;;;;;;;;;1.33;1.33;;;;;27.90;34.55;97639.88;5014024;28;102191;-80
2023/07/19 16:26:52;;;;;;;;;0.75;0.75;;;;;27.84;36.22;97634.84;5015073;28;102949;-80
2023/07/19 16:29:19;;;;;;;;;1.33;1.33;;;;;27.89;36.41;97645.75;5012989;27;104154;-82
2023/07/19 16:31:46;;;;;;;;;4.00;3.33;;;;;27.76;37.30;97638.47;5013220;28;102545;-79
2023/07/19 16:34:13;;;;;;;;;1.67;1.67;;;;;27.68;36.96;97625.47;4995422;28;102026;-78
2023/07/19 16:36:40;;;;;;;;;4.00;4.00;;;;;27.67;36.04;97638.53;5013291;28;101943;-80
2023/07/19 16:39:07;;;;;;;;;5.33;4.67;;;;;27.69;37.79;97641.00;5016015;28;104038;-80
2023/07/19 16:41:37;;;;;;;;;4.00;4.00;;;;;27.59;36.97;97633.84;5016443;27;101881;-80
2023/07/19 16:44:07;;;;;;;;;5.00;4.00;;;;;27.65;35.78;97637.25;5015848;28;102349;-80
2023/07/19 16:46:35;;;;;;;;;2.67;2.67;;;;;27.73;36.49;97633.63;5017897;28;102295;-80
2023/07/19 16:49:03;;;;;;;;;2.25;2.25;;;;;27.75;36.67;97637.66;5017181;28;104685;-80
2023/07/19 16:51:31;;;;;;;;;4.00;4.00;;;;;27.67;35.36;97635.75;4967493;28;102254;-80
2023/07/19 16:53:58;;;;;;;;;4.00;3.25;;;;;27.58;36.24;97632.22;5011528;28;102104;-79
2023/07/19 16:56:25;;;;;;;;;4.75;4.00;;;;;27.58;35.61;97636.97;5018029;28;102355;-81
2023/07/19 16:58:52;;;;;;;;;2.50;2.50;;;;;27.49;37.08;97623.13;4999391;28;104224;-80
2023/07/19 17:01:21;;;;;;;;;2.00;2.00;;;;;27.55;36.56;97645.97;5017002;28;102023;-80
2023/07/19 17:03:53;;;;;;;;;5.00;5.00;;;;;27.37;35.12;97643.25;5017154;28;101981;-80
2023/07/19 17:06:20;;;;;;;;;5.67;4.67;;;;;27.32;35.69;97646.19;5017687;28;102448;-81
2023/07/19 17:08:49;;;;;;;;;3.00;3.00;;;;;27.26;34.99;97652.25;5017068;28;104209;-80
2023/07/19 17:11:25;;;;;;;;;3.33;3.33;;;;;27.27;35.26;97640.81;5015455;27;102460;-80
2023/07/19 17:13:52;;;;;;;;;5.00;4.00;;;;;27.24;35.84;97641.50;5014071;28;102250;-81
2023/07/19 17:16:19;;;;;;;;;3.25;3.25;;;;;27.38;36.84;97650.41;5017192;28;102885;-80
2023/07/19 17:18:47;;;;;;;;;2.25;2.25;;;;;27.40;38.28;97653.69;5016823;28;104079;-79
2023/07/19 17:21:18;;;;;;;;;1.25;0.50;;;;;27.41;37.29;97644.19;5014275;28;102430;-80
2023/07/19 17:23:46;;;;;;;;;0.25;0.25;;;;;27.33;36.41;97645.03;5018829;28;102267;-80
2023/07/19 17:26:13;;;;;;;;;1.00;1.00;;;;;27.16;37.32;97624.84;5018249;28;102126;-80
2023/07/19 17:28:41;;;;;;;;;1.75;1.75;;;;;27.23;35.79;97659.31;5014750;27;104300;-81
2023/07/19 17:31:08;;;;;;;;;2.25;2.25;;;;;27.13;36.69;97665.19;5017070;28;102145;-80
2023/07/19 17:33:35;;;;;;;;;2.25;2.25;;;;;27.05;36.67;97664.09;5016522;28;102361;-80
2023/07/19 17:36:02;;;;;;;;;3.00;2.25;;;;;26.87;36.88;97645.84;5018237;28;101932;-80
2023/07/19 17:38:29;;;;;;;;;3.00;3.00;;;;;26.96;37.52;97659.72;5014127;28;104041;-81
2023/07/19 17:40:56;;;;;;;;;5.33;4.33;;;;;26.82;37.64;97659.06;5014844;28;102630;-80
2023/07/19 17:43:24;;;;;;;;;3.00;3.00;;;;;26.91;38.94;97657.09;5014614;28;102407;-80
2023/07/19 17:45:51;;;;;;;;;1.00;1.00;;;;;26.80;38.17;97653.81;5016901;28;102340;-80
2023/07/19 17:48:18;;;;;;;;;1.00;1.00;;;;;26.77;40.99;97668.34;5015145;28;104157;-80
2023/07/19 17:50:45;;;;;;;;;1.00;1.00;;;;;26.67;40.75;97662.31;5018016;28;102070;-80
2023/07/19 17:53:13;;;;;;;;;0.75;0.50;;;;;26.47;42.88;97644.41;5016323;28;102330;-80
2023/07/19 17:55:40;;;;;;;;;1.00;1.00;;;;;26.45;43.10;97661.38;4999408;27;102387;-81
2023/07/19 17:58:07;;;;;;;;;1.00;1.00;;;;;26.34;40.52;97662.03;5015305;28;104330;-80
2023/07/19 18:00:35;;;;;;;;;1.00;1.00;;;;;26.25;43.46;97664.81;5016236;28;102110;-81
2023/07/19 18:03:02;;;;;;;;;2.00;2.00;;;;;26.10;46.52;97659.72;5013013;28;102366;-81
2023/07/19 18:05:29;;;;;;;;;1.00;1.00;;;;;25.93;47.71;97659.69;5016890;28;102154;-81
2023/07/19 18:07:56;;;;;;;;;1.00;1.00;;;;;25.71;46.64;97668.94;5013189;28;104041;-82
2023/07/19 18:10:43;;;;;;;;;1.00;1.00;;;;;25.46;47.94;97656.59;5012466;28;102064;-81
2023/07/19 18:13:10;;;;;;;;;2.00;1.00;;;;;25.25;47.36;97645.28;5013580;28;102103;-81
2023/07/19 18:15:37;;;;;;;;;1.00;1.00;;;;;25.13;49.58;97645.06;5015266;28;102431;-81
2023/07/19 18:18:04;;;;;;;;;1.00;1.00;;;;;24.97;51.09;97654.91;5013133;28;103972;-81
2023/07/19 18:20:32;;;;;;;;;1.00;1.00;;;;;24.78;49.54;97652.34;5015472;28;103178;-81
2023/07/19 18:22:59;;;;;;;;;1.00;1.00;;;;;24.61;53.17;97652.22;5011071;27;102509;-81
2023/07/19 18:25:26;;;;;;;;;1.67;1.00;;;;;24.42;53.57;97651.59;5016009;28;102400;-80
2023/07/19 18:27:53;;;;;;;;;1.00;1.00;;;;;24.20;53.24;97657.09;5014899;27;103517;-80
2023/07/19 18:30:20;;;;;;;;;2.00;2.00;;;;;23.98;52.46;97653.16;5014466;27;102113;-81
2023/07/19 18:32:47;;;;;;;;;1.00;1.00;;;;;23.79;53.30;97648.88;5016834;27;102350;-81
2023/07/19 18:35:16;;;;;;;;;1.00;1.00;;;;;23.63;53.75;97648.41;5016823;27;102221;-81
2023/07/19 18:37:43;;;;;;;;;1.00;1.00;;;;;23.32;55.45;97628.06;5013486;27;104264;-80
2023/07/19 18:40:56;;;;;;;;;1.00;1.00;;;;;23.22;56.04;97642.06;5010360;28;102260;-80
2023/07/19 18:43:23;;;;;;;;;0.00;0.00;;;;;23.05;56.86;97657.28;5005288;27;102945;-80
2023/07/19 18:45:52;;;;;;;;;0.00;0.00;;;;;22.90;56.33;97668.56;5011896;28;102332;-80
2023/07/19 18:48:19;;;;;;;;;0.67;0.67;;;;;22.73;56.14;97654.56;5014654;27;104063;-82
2023/07/19 18:50:46;;;;;;;;;1.00;0.00;;;;;22.66;57.93;97673.38;5013733;27;102200;-82
2023/07/19 18:53:13;;;;;;;;;1.00;1.00;;;;;22.54;57.60;97664.75;5011803;27;102260;-80
2023/07/19 18:55:40;;;;;;;;;2.00;1.00;;;;;22.46;57.46;97657.19;5016714;27;102340;-82
2023/07/19 18:58:07;;;;;;;;;1.00;1.00;;;;;22.43;59.35;97686.13;5014238;28;104202;-80
2023/07/19 19:00:34;;;;;;;;;2.00;2.00;;;;;22.27;60.45;97670.16;5003780;28;102007;-82
2023/07/19 19:03:01;;;;;;;;;2.00;2.00;;;;;22.02;61.35;97650.13;5013764;27;101969;-82
2023/07/19 19:05:29;;;;;;;;;2.00;2.00;;;;;22.09;63.05;97680.88;5012084;28;102351;-80
2023/07/19 19:07:56;;;;;;;;;4.00;4.00;;;;;21.91;63.81;97678.91;5014107;27;104271;-81
2023/07/19 19:10:23;;;;;;;;;3.67;3.67;;;;;21.77;65.52;97680.75;5014495;27;101980;-80
2023/07/19 19:12:50;;;;;;;;;16.00;15.33;;;;;21.51;65.40;97660.19;5014841;27;101809;-82
2023/07/19 19:15:17;;;;;;;;;20.33;18.00;;;;;21.57;64.88;97681.81;5018998;27;102240;-81
2023/07/19 19:17:44;;;;;;;;;24.00;23.33;;;;;21.48;65.31;97680.03;5014040;27;109293;-81
2023/07/19 19:20:11;;;;;;;;;50.00;39.75;;;;;21.42;62.67;97682.03;5013302;27;102344;-81
2023/07/19 19:22:39;;;;;;;;;37.50;33.25;;;;;21.41;60.54;97674.88;5014302;28;102109;-81
2023/07/19 19:25:06;;;;;;;;;43.00;36.25;;;;;21.30;61.66;97657.66;5014656;27;102236;-81
2023/07/19 19:27:34;;;;;;;;;41.00;34.75;;;;;21.16;63.83;97659.50;5013109;27;106486;-80
2023/07/19 19:30:01;;;;;;;;;46.25;37.75;;;;;20.77;66.83;97632.13;5015033;27;102068;-80
2023/07/19 19:32:28;;;;;;;;;27.00;23.75;;;;;20.92;67.33;97688.88;5014199;27;102011;-80
2023/07/19 19:34:56;;;;;;;;;33.75;30.50;;;;;20.69;67.46;97678.63;5016065;28;102121;-80
2023/07/19 19:37:23;;;;;;;;;29.50;27.00;;;;;20.68;68.83;97690.72;5013736;27;104016;-80
2023/07/19 19:39:50;;;;;;;;;28.67;26.33;;;;;20.53;69.64;97683.47;5013438;28;102466;-80
2023/07/19 19:42:17;;;;;;;;;28.00;24.67;;;;;20.44;73.03;97693.41;5014941;27;102152;-81
2023/07/19 19:44:44;;;;;;;;;30.00;26.33;;;;;20.29;75.13;97691.56;5011735;27;102055;-80
2023/07/19 19:47:11;;;;;;;;;22.67;22.33;;;;;20.10;80.04;97681.53;5013596;27;103341;-80
2023/07/19 19:49:39;;;;;;;;;26.00;23.00;;;;;20.17;75.76;97690.28;5013558;27;102212;-81
2023/07/19 19:52:06;;;;;;;;;21.00;17.00;;;;;20.20;76.21;97692.44;5014093;27;101993;-81
2023/07/19 19:54:34;;;;;;;;;13.33;10.33;;;;;20.15;75.64;97695.22;5014467;27;102322;-82
2023/07/19 19:57:01;;;;;;;;;15.67;12.33;;;;;20.15;76.62;97687.00;5009096;27;104132;-81
2023/07/19 19:59:31;;;;;;;;;11.00;10.00;;;;;20.01;76.22;97684.06;5014931;27;102429;-81
2023/07/19 20:01:59;;;;;;;;;10.67;9.67;;;;;19.96;78.64;97698.63;5014244;28;102130;-81
2023/07/19 20:04:29;;;;;;;;;20.00;19.00;;;;;19.82;78.95;97694.03;5015879;27;102565;-81
2023/07/19 20:06:56;;;;;;;;;17.67;15.67;;;;;19.83;78.55;97703.91;5014734;27;104087;-80
2023/07/19 20:09:23;;;;;;;;;21.00;20.00;;;;;19.83;78.33;97701.19;5014122;27;102034;-81
2023/07/19 20:11:55;;;;;;;;;22.00;21.33;;;;;19.83;82.04;97704.75;5011806;27;102015;-81
2023/07/19 20:14:24;;;;;;;;;27.33;22.00;;;;;19.80;84.98;97704.50;5014183;28;102541;-81
2023/07/19 20:16:52;;;;;;;;;27.50;24.75;;;;;19.73;84.79;97693.00;5011625;27;104541;-81
2023/07/19 20:19:19;;;;;;;;;32.00;25.00;;;;;19.71;83.96;97682.31;5012553;28;102020;-80
2023/07/19 20:21:49;;;;;;;;;37.75;32.75;;;;;19.72;81.74;97685.88;5012989;28;103117;-80
2023/07/19 20:24:17;;;;;;;;;46.50;35.50;;;;;19.71;79.98;97682.31;5017709;28;102076;-81
2023/07/19 20:26:51;;;;;;;;;50.00;39.25;;;;;19.63;80.11;97687.56;5010534;28;108788;-81
2023/07/19 20:29:20;;;;;;;;;44.50;36.00;;;;;19.47;78.50;97668.44;5013619;27;102285;-81
2023/07/19 20:31:50;;;;;;;;;37.50;31.50;;;;;19.56;83.54;97685.94;5002890;28;102297;-80
2023/07/19 20:34:21;;;;;;;;;34.75;30.75;;;;;19.55;81.11;97676.06;5004699;27;103535;-81
2023/07/19 20:36:51;;;;;;;;;24.25;23.25;;;;;19.64;79.58;97683.72;5009124;28;102913;-81
2023/07/19 20:39:18;;;;;;;;;21.00;17.25;;;;;19.60;80.92;97673.31;5014829;28;101910;-81
2023/07/19 20:41:48;;;;;;;;;15.00;15.00;;;;;19.70;81.23;97682.59;5010197;27;103088;-81
2023/07/19 20:44:17;;;;;;;;;16.00;15.00;;;;;19.72;84.73;97681.22;5012313;28;102046;-81
2023/07/19 20:46:47;;;;;;;;;17.50;15.50;;;;;19.69;85.46;97680.94;5005475;28;108555;-81
2023/07/19 20:49:15;;;;;;;;;16.33;12.00;;;;;19.75;84.22;97690.81;5008918;28;101916;-81
2023/07/19 20:51:43;;;;;;;;;14.67;13.67;;;;;19.81;83.03;97679.50;5008784;28;102297;-81
2023/07/19 20:54:12;;;;;;;;;12.33;9.00;;;;;19.88;82.18;97673.72;5013076;28;102143;-81
2023/07/19 20:56:40;;;;;;;;;9.00;8.00;;;;;19.96;81.18;97675.84;5010060;28;104095;-81
2023/07/19 20:59:08;;;;;;;;;8.00;7.00;;;;;20.01;82.42;97675.81;5013013;28;102158;-81
2023/07/19 21:01:38;;;;;;;;;8.00;8.00;;;;;19.84;85.56;97642.47;5010492;28;102128;-81
2023/07/19 21:04:06;;;;;;;;;8.00;8.00;;;;;20.08;84.22;97675.53;5012507;28;102127;-81
2023/07/19 21:06:33;;;;;;;;;9.00;8.00;;;;;20.13;81.65;97678.25;5011654;28;104182;-81
2023/07/19 21:09:00;;;;;;;;;7.33;7.33;;;;;20.11;82.27;97677.69;5010588;27;102390;-81
2023/07/19 21:11:27;;;;;;;;;6.67;5.67;;;;;20.12;81.64;97680.16;5008114;27;103224;-81
2023/07/19 21:13:54;;;;;;;;;5.00;5.00;;;;;20.13;82.71;97690.00;5009276;27;103090;-79
2023/07/19 21:16:21;;;;;;;;;5.00;5.00;;;;;20.16;83.11;97694.94;5011581;28;104086;-79
2023/07/19 21:18:49;;;;;;;;;2.33;1.00;;;;;20.09;85.27;97691.69;5012981;27;102201;-80
2023/07/19 21:21:16;;;;;;;;;6.33;5.67;;;;;20.02;85.26;97703.00;5014475;27;102417;-79
2023/07/19 21:23:43;;;;;;;;;8.67;5.67;;;;;19.97;84.89;97710.44;5014122;27;103349;-80
2023/07/19 21:26:10;;;;;;;;;11.67;9.67;;;;;19.87;87.79;97702.25;5013594;28;104876;-83
2023/07/19 21:28:37;;;;;;;;;13.67;12.33;;;;;19.80;91.12;97704.50;5014297;27;103500;-82
2023/07/19 21:31:04;;;;;;;;;11.33;10.00;;;;;19.83;92.27;97720.38;5012283;28;102126;-83
2023/07/19 21:33:31;;;;;;;;;11.33;11.00;;;;;19.81;93.90;97706.94;5012866;28;102407;-80
2023/07/19 21:35:58;;;;;;;;;18.00;16.50;;;;;19.63;98.74;97698.56;5008686;28;104126;-81
2023/07/19 21:38:27;;;;;;;;;20.75;16.75;;;;;19.37;99.84;97709.56;5006754;28;102524;-81
2023/07/19 21:40:54;;;;;;;;;20.50;16.75;;;;;19.27;100.00;97714.28;5007560;28;102164;-82
2023/07/19 21:43:21;;;;;;;;;14.33;13.67;;;;;19.26;99.92;97704.41;5012965;28;102626;-80
2023/07/19 21:45:49;;;;;;;;;18.00;15.33;;;;;19.26;98.75;97707.16;5015132;28;104092;-81
2023/07/19 21:48:16;;;;;;;;;18.50;18.50;;;;;18.95;100.00;97699.00;5014594;28;102234;-81
2023/07/19 21:50:44;;;;;;;;;16.75;13.50;;;;;18.87;99.99;97690.50;5016434;28;102086;-83
2023/07/19 21:53:15;;;;;;;;;13.00;12.00;;;;;18.99;100.00;97694.59;5016158;28;102086;-83
2023/07/19 21:55:43;;;;;;;;;8.67;8.67;;;;;19.00;99.20;97698.16;5008882;27;104093;-83
2023/07/19 21:58:10;;;;;;;;;13.67;12.67;;;;;19.01;100.00;97694.31;5014089;28;103350;-80
2023/07/19 22:00:44;;;;;;;;;12.00;12.00;;;;;19.00;100.00;97684.47;5007317;28;102492;-82
2023/07/19 22:03:12;;;;;;;;;16.33;14.00;;;;;18.89;100.00;97680.91;5006005;28;101920;-83
2023/07/19 22:05:40;;;;;;;;;16.75;13.75;;;;;18.73;100.00;97674.63;5013148;27;104005;-80
2023/07/19 22:08:08;;;;;;;;;14.00;12.00;;;;;18.72;100.00;97669.44;5010492;28;102048;-81
2023/07/19 22:10:35;;;;;;;;;10.00;10.00;;;;;18.80;100.00;97679.00;5016069;27;102077;-81
2023/07/19 22:13:04;;;;;;;;;7.00;7.00;;;;;18.85;98.44;97682.56;5017912;28;102061;-80
2023/07/19 22:15:32;;;;;;;;;8.00;7.00;;;;;18.84;99.26;97664.50;5014318;28;104237;-80
2023/07/19 22:18:21;;;;;;;;;7.67;6.67;;;;;18.94;98.75;97671.88;5016640;28;102477;-80
2023/07/19 22:20:49;;;;;;;;;6.00;6.00;;;;;18.97;96.77;97677.63;5013156;28;102131;-80
2023/07/19 22:23:17;;;;;;;;;5.33;5.33;;;;;19.00;98.71;97679.00;5014970;28;101971;-80
2023/07/19 22:25:46;;;;;;;;;5.00;4.33;;;;;19.00;97.72;97682.53;5009528;28;104176;-81
2023/07/19 22:28:13;;;;;;;;;3.00;2.33;;;;;18.98;96.35;97670.22;5010613;27;102317;-83
2023/07/19 22:30:41;;;;;;;;;5.00;4.00;;;;;18.99;94.52;97669.94;5009279;28;102155;-83
2023/07/19 22:33:09;;;;;;;;;3.33;3.33;;;;;18.90;93.63;97654.34;5007812;28;102390;-82
2023/07/19 22:35:36;;;;;;;;;4.00;4.00;;;;;18.79;92.09;97648.06;5011673;28;104354;-81
2023/07/19 22:38:03;;;;;;;;;4.67;4.00;;;;;18.90;93.00;97666.13;5013373;28;102028;-81
2023/07/19 22:40:31;;;;;;;;;3.33;3.33;;;;;18.70;93.34;97636.84;5013380;27;103547;-81
2023/07/19 22:42:58;;;;;;;;;4.00;4.00;;;;;18.84;95.19;97678.19;5014144;28;102326;-81
2023/07/19 22:45:25;;;;;;;;;4.33;4.00;;;;;18.80;93.56;97668.06;5008037;28;104255;-81
2023/07/19 22:47:52;;;;;;;;;4.33;4.00;;;;;18.77;91.29;97663.97;5014304;28;102024;-81
2023/07/19 22:50:19;;;;;;;;;3.00;3.00;;;;;18.69;91.60;97654.38;5011430;28;102105;-81
2023/07/19 22:52:52;;;;;;;;;4.00;4.00;;;;;18.66;90.98;97654.94;5013858;28;102098;-83
2023/07/19 22:55:20;;;;;;;;;2.00;2.00;;;;;18.60;92.54;97664.25;5013579;28;104245;-83
2023/07/19 22:57:52;;;;;;;;;2.00;2.00;;;;;18.51;94.04;97663.13;5013050;27;103495;-81
2023/07/19 23:00:21;;;;;;;;;3.00;3.00;;;;;18.40;92.22;97658.75;5010204;28;103004;-81
2023/07/19 23:02:48;;;;;;;;;3.00;3.00;;;;;18.36;91.62;97656.84;4996950;28;102162;-81
2023/07/19 23:05:16;;;;;;;;;3.00;3.00;;;;;18.35;92.74;97661.50;5012202;28;104048;-82
2023/07/19 23:07:43;;;;;;;;;3.00;2.00;;;;;18.34;92.99;97670.78;5014879;28;102439;-81
2023/07/19 23:10:11;;;;;;;;;3.67;3.67;;;;;18.29;92.81;97662.59;5014503;28;102736;-82
2023/07/19 23:12:38;;;;;;;;;3.00;3.00;;;;;18.28;91.81;97661.75;5016280;28;101944;-81
2023/07/19 23:15:06;;;;;;;;;3.00;3.00;;;;;18.26;93.72;97657.66;5014941;28;104223;-81
2023/07/19 23:17:33;;;;;;;;;2.33;2.33;;;;;18.21;93.71;97657.66;5011818;28;103095;-81
2023/07/19 23:20:00;;;;;;;;;3.67;3.67;;;;;18.10;96.41;97664.22;5013754;27;102430;-81
2023/07/19 23:22:27;;;;;;;;;4.00;4.00;;;;;18.03;96.55;97674.59;5016583;28;102135;-81
2023/07/19 23:24:54;;;;;;;;;4.33;4.33;;;;;17.90;97.02;97655.97;5016215;28;104046;-82
2023/07/19 23:27:21;;;;;;;;;5.33;5.33;;;;;17.88;97.28;97671.84;5004760;27;102795;-82
2023/07/19 23:29:53;;;;;;;;;4.00;4.00;;;;;17.78;98.05;97662.53;5009162;27;102194;-82
2023/07/19 23:32:22;;;;;;;;;2.67;2.67;;;;;17.77;98.16;97671.00;5010705;28;106174;-82
2023/07/19 23:34:52;;;;;;;;;3.00;3.00;;;;;17.67;97.82;97654.56;5005966;27;104132;-81
2023/07/19 23:37:20;;;;;;;;;3.00;3.00;;;;;17.69;97.83;97652.41;5007463;28;102536;-82
2023/07/19 23:39:47;;;;;;;;;2.00;2.00;;;;;17.81;96.62;97672.94;5013127;28;102500;-81
2023/07/19 23:42:15;;;;;;;;;4.33;4.00;;;;;17.83;97.71;97665.25;5013033;27;102473;-81
2023/07/19 23:44:42;;;;;;;;;3.00;3.00;;;;;17.88;95.95;97669.13;5010570;27;104033;-81
2023/07/19 23:47:09;;;;;;;;;2.00;2.00;;;;;17.92;96.41;97667.50;5012064;28;102427;-81
2023/07/19 23:49:37;;;;;;;;;2.00;2.00;;;;;17.94;97.81;97676.22;5010240;27;102428;-82
2023/07/19 23:52:04;;;;;;;;;2.00;2.00;;;;;17.91;95.75;97665.84;5012218;28;102227;-81
2023/07/19 23:54:31;;;;;;;;;2.33;2.33;;;;;17.94;96.48;97676.22;5013600;27;104079;-80
2023/07/19 23:56:58;;;;;;;;;2.00;2.00;;;;;17.94;95.31;97671.56;5013418;27;102232;-81
2023/07/19 23:59:25;;;;;;;;;2.00;2.00;;;;;17.99;94.28;97662.56;5010504;28;105514;-82
